KHNZ

Henderson-Oxford Airport

Oxford, North Carolina, USA
METAR KHNZ 280035Z AUTO 19005KT 10SM CLR 23/19 A2999 RMK AO2 T02310192
Observed Flight Rules
May-28 @ 00:35 UTC (35 minutes ago) Visual Flight Rules
Wind Visibility Clouds
190° at 5 knots 10 miles
  • Clear skies
Temperatures Readings
Current 23°C / 73°F
Dewpoint 19°C / 66°F
Humidity 78%
Altimeter 29.99" Hg
Pressure 1016 hPa
Elevation 161
METAR KHNZ 280035Z AUTO 19005KT 10SM CLR 23/19 A2999 RMK AO2 T02310192
Observed Flight Rules
May-28 @ 00:35 UTC
(35 minutes ago)
VFR
Wind Visibility
190° at 5 knots 10 miles
Clouds
  • Clear skies
Temperature Dewpoint
23°C / 73°F 19°C / 66°F
Humidity Altimeter Pressure
78% 29.99" Hg 1016 hPa